createdAt,value
2023-08-08T00:00:04.619Z,12.00
2023-08-08T00:01:04.626Z,10.90
2023-08-08T00:02:04.582Z,9.40
2023-08-08T00:03:04.627Z,9.50
2023-08-08T00:04:04.800Z,8.90
2023-08-08T00:05:04.579Z,7.10
2023-08-08T00:06:04.547Z,8.60
2023-08-08T00:07:04.523Z,11.10
2023-08-08T00:08:04.522Z,8.90
2023-08-08T00:09:04.527Z,11.50
2023-08-08T00:10:04.534Z,13.80
2023-08-08T00:11:04.493Z,10.50
2023-08-08T00:12:05.481Z,9.10
2023-08-08T00:13:04.467Z,10.30
2023-08-08T00:14:04.523Z,9.60
2023-08-08T00:15:04.466Z,10.60
2023-08-08T00:16:04.518Z,10.00
2023-08-08T00:17:04.425Z,8.50
2023-08-08T00:18:05.445Z,11.20
2023-08-08T00:19:04.475Z,10.10
2023-08-08T00:20:04.401Z,11.40
2023-08-08T00:21:04.405Z,12.00
2023-08-08T00:22:04.387Z,10.30
2023-08-08T00:23:04.357Z,6.80
2023-08-08T00:24:04.359Z,7.80
2023-08-08T00:25:05.393Z,9.50
2023-08-08T00:26:04.338Z,10.90
2023-08-08T00:27:04.339Z,8.80
2023-08-08T00:28:04.336Z,9.30
2023-08-08T00:29:04.329Z,9.80
2023-08-08T00:30:04.300Z,12.40
2023-08-08T00:31:04.341Z,15.10
2023-08-08T00:32:04.276Z,10.70
2023-08-08T00:33:04.354Z,9.70
2023-08-08T00:34:04.258Z,10.20
2023-08-08T00:35:04.257Z,8.00
2023-08-08T00:36:04.247Z,8.20
2023-08-08T00:37:04.232Z,9.20
2023-08-08T00:38:04.235Z,10.00
2023-08-08T00:39:04.204Z,11.30
2023-08-08T00:40:04.195Z,8.80
2023-08-08T00:41:04.180Z,9.60
2023-08-08T00:42:04.193Z,10.80
2023-08-08T00:43:04.193Z,9.80
2023-08-08T00:44:04.158Z,11.20
2023-08-08T00:45:04.142Z,8.30
2023-08-08T00:46:04.163Z,9.40
2023-08-08T00:47:04.202Z,10.80
2023-08-08T00:48:04.138Z,10.00
2023-08-08T00:49:04.118Z,10.10
2023-08-08T00:50:04.086Z,10.80
2023-08-08T00:51:04.096Z,8.60
2023-08-08T00:52:04.098Z,9.80
2023-08-08T00:53:04.064Z,10.50
2023-08-08T00:54:04.066Z,8.70
2023-08-08T00:55:04.042Z,10.90
2023-08-08T00:56:04.058Z,9.80
2023-08-08T00:57:04.112Z,12.00
2023-08-08T00:58:04.006Z,8.80
2023-08-08T00:59:04.024Z,12.00
2023-08-08T01:00:04.005Z,9.70
2023-08-08T01:01:04.051Z,11.20
2023-08-08T01:02:04.008Z,9.60
2023-08-08T01:03:04.017Z,9.10
2023-08-08T01:04:03.949Z,11.90
2023-08-08T01:05:03.945Z,11.20
2023-08-08T01:06:03.948Z,11.70
2023-08-08T01:07:03.941Z,8.90
2023-08-08T01:08:03.914Z,11.90
2023-08-08T01:09:03.894Z,12.60
2023-08-08T01:10:03.924Z,16.00
2023-08-08T01:11:03.920Z,13.60
2023-08-08T01:12:03.891Z,10.80
2023-08-08T01:13:03.882Z,9.50
2023-08-08T01:14:03.844Z,12.20
2023-08-08T01:15:03.861Z,9.40
2023-08-08T01:16:03.832Z,12.70
2023-08-08T01:17:03.831Z,11.40
2023-08-08T01:18:03.852Z,9.50
2023-08-08T01:19:03.813Z,9.90
2023-08-08T01:20:03.827Z,8.40
2023-08-08T01:21:03.788Z,11.50
2023-08-08T01:22:03.778Z,8.90
2023-08-08T01:23:03.809Z,9.60
2023-08-08T01:24:03.779Z,9.00
2023-08-08T01:25:03.755Z,11.70
2023-08-08T01:26:03.741Z,10.30
2023-08-08T01:27:03.717Z,10.60
2023-08-08T01:28:03.716Z,9.50
2023-08-08T01:29:03.805Z,11.90
2023-08-08T01:30:03.735Z,12.20
2023-08-08T01:31:03.710Z,10.60
2023-08-08T01:32:03.675Z,11.00
2023-08-08T01:33:03.693Z,10.80
2023-08-08T01:34:03.681Z,12.30
2023-08-08T01:35:03.640Z,9.20
2023-08-08T01:36:03.622Z,11.00
2023-08-08T01:37:03.610Z,12.10
2023-08-08T01:38:03.630Z,10.40
2023-08-08T01:39:03.619Z,13.90
2023-08-08T01:40:03.657Z,9.20
2023-08-08T01:41:03.577Z,11.50
2023-08-08T01:42:03.912Z,11.00
2023-08-08T01:43:03.581Z,9.80
2023-08-08T01:44:03.543Z,10.70
2023-08-08T01:45:03.535Z,11.00
2023-08-08T01:46:03.547Z,11.20
2023-08-08T01:47:03.518Z,11.80
2023-08-08T01:48:03.546Z,13.80
2023-08-08T01:49:03.484Z,10.60
2023-08-08T01:50:03.484Z,11.70
2023-08-08T01:51:03.466Z,10.60
2023-08-08T01:52:03.497Z,14.80
2023-08-08T01:53:03.482Z,11.90
2023-08-08T01:54:03.436Z,13.70
2023-08-08T01:55:03.449Z,11.00
2023-08-08T01:56:03.427Z,14.00
2023-08-08T01:57:03.437Z,12.70
2023-08-08T01:58:03.403Z,14.10
2023-08-08T01:59:03.387Z,15.50
2023-08-08T02:00:03.403Z,10.10
2023-08-08T02:01:03.377Z,12.80
2023-08-08T02:02:03.456Z,8.60
2023-08-08T02:03:03.404Z,11.10
2023-08-08T02:04:03.339Z,10.70
2023-08-08T02:05:03.358Z,9.20
2023-08-08T02:06:03.338Z,8.60
2023-08-08T02:07:03.335Z,11.30
2023-08-08T02:08:03.309Z,11.90
2023-08-08T02:09:03.384Z,9.20
2023-08-08T02:10:03.300Z,12.10
2023-08-08T02:11:03.305Z,10.90
2023-08-08T02:12:03.264Z,11.70
2023-08-08T02:13:03.256Z,9.60
2023-08-08T02:14:03.246Z,10.80
2023-08-08T02:15:03.233Z,9.50
2023-08-08T02:16:03.276Z,11.10
2023-08-08T02:17:03.229Z,8.40
2023-08-08T02:18:03.199Z,12.80
2023-08-08T02:19:03.202Z,9.50
2023-08-08T02:20:03.211Z,12.40
2023-08-08T02:21:03.198Z,11.30
2023-08-08T02:22:03.178Z,12.00
2023-08-08T02:23:03.162Z,11.30
2023-08-08T02:24:03.147Z,15.30
2023-08-08T02:25:03.165Z,9.40
2023-08-08T02:26:03.128Z,12.60
2023-08-08T02:27:03.123Z,11.80
2023-08-08T02:28:03.119Z,14.10
2023-08-08T02:29:03.097Z,11.60
2023-08-08T02:30:03.099Z,9.70
2023-08-08T02:31:03.068Z,10.10
2023-08-08T02:32:03.208Z,11.20
2023-08-08T02:33:03.065Z,13.40
2023-08-08T02:34:03.071Z,11.30
2023-08-08T02:35:03.058Z,10.80
2023-08-08T02:36:34.924Z,11.70
2023-08-08T02:37:03.004Z,9.90
2023-08-08T02:38:03.006Z,12.40
2023-08-08T02:39:03.044Z,9.20
2023-08-08T02:40:02.983Z,12.90
2023-08-08T02:41:02.961Z,11.70
2023-08-08T02:42:02.963Z,11.30
2023-08-08T02:43:03.016Z,12.10
2023-08-08T02:44:03.031Z,11.50
2023-08-08T02:45:02.936Z,8.80
2023-08-08T02:46:02.932Z,11.60
2023-08-08T02:47:02.898Z,11.80
2023-08-08T02:48:02.924Z,14.40
2023-08-08T02:49:02.880Z,9.50
2023-08-08T02:50:02.885Z,8.80
2023-08-08T02:51:02.856Z,10.10
2023-08-08T02:52:02.914Z,11.10
2023-08-08T02:53:02.866Z,11.10
2023-08-08T02:54:03.837Z,12.00
2023-08-08T02:55:02.859Z,10.80
2023-08-08T02:56:02.816Z,11.50
2023-08-08T02:57:02.830Z,12.00
2023-08-08T02:58:02.800Z,11.30
2023-08-08T02:59:02.782Z,9.10
2023-08-08T03:00:02.767Z,10.70
2023-08-08T03:01:02.771Z,12.70
2023-08-08T03:02:03.007Z,10.90
2023-08-08T03:03:02.773Z,11.10
2023-08-08T03:04:02.750Z,13.60
2023-08-08T03:05:02.721Z,10.90
2023-08-08T03:06:02.708Z,12.50
2023-08-08T03:07:02.760Z,14.10
2023-08-08T03:08:02.690Z,15.40
2023-08-08T03:09:02.679Z,14.20
2023-08-08T03:10:02.671Z,20.90
2023-08-08T03:11:02.675Z,15.90
2023-08-08T03:12:02.679Z,12.90
2023-08-08T03:13:02.639Z,13.60
2023-08-08T03:14:02.625Z,17.60
2023-08-08T03:15:02.616Z,18.40
2023-08-08T03:16:02.695Z,18.30
2023-08-08T03:17:02.597Z,16.10
2023-08-08T03:18:02.632Z,14.70
2023-08-08T03:19:02.591Z,16.50
2023-08-08T03:20:02.618Z,16.30
2023-08-08T03:21:02.594Z,13.50
2023-08-08T03:22:02.927Z,14.70
2023-08-08T03:23:02.557Z,17.20
2023-08-08T03:24:02.532Z,17.20
2023-08-08T03:25:02.541Z,14.20
2023-08-08T03:26:02.612Z,13.70
2023-08-08T03:27:02.500Z,14.60
2023-08-08T03:28:02.481Z,12.30
2023-08-08T03:29:02.469Z,16.10
2023-08-08T03:30:02.640Z,15.50
2023-08-08T03:31:02.463Z,17.70
2023-08-08T03:32:02.729Z,21.20
2023-08-08T03:33:02.466Z,20.50
2023-08-08T03:34:02.450Z,20.50
2023-08-08T03:35:03.524Z,18.30
2023-08-08T03:36:02.401Z,21.40
2023-08-08T03:37:02.391Z,20.80
2023-08-08T03:38:02.386Z,19.60
2023-08-08T03:39:02.402Z,20.10
2023-08-08T03:40:02.376Z,21.40
2023-08-08T03:41:02.360Z,19.40
2023-08-08T03:42:02.620Z,19.80
2023-08-08T03:43:02.333Z,18.00
2023-08-08T03:44:02.360Z,18.60
2023-08-08T03:45:02.323Z,19.80
2023-08-08T03:46:02.307Z,20.70
2023-08-08T03:47:13.759Z,21.90
2023-08-08T03:48:04.318Z,18.00
2023-08-08T03:49:02.299Z,12.60
2023-08-08T03:50:02.252Z,17.70
2023-08-08T03:51:02.256Z,17.20
2023-08-08T03:52:02.235Z,17.60
2023-08-08T03:53:03.242Z,15.50
2023-08-08T03:54:02.302Z,22.00
2023-08-08T03:55:02.215Z,20.50
2023-08-08T03:56:02.197Z,19.70
2023-08-08T03:57:02.209Z,27.40
2023-08-08T03:58:02.219Z,18.40
2023-08-08T03:59:02.172Z,17.10
2023-08-08T04:00:02.168Z,16.30
2023-08-08T04:01:02.208Z,18.50
2023-08-08T04:02:02.307Z,19.30
2023-08-08T04:03:02.163Z,19.60
2023-08-08T04:04:02.111Z,17.90
2023-08-08T04:05:02.114Z,22.60
2023-08-08T04:06:02.124Z,19.90
2023-08-08T04:07:02.076Z,17.50
2023-08-08T04:08:02.097Z,20.20
2023-08-08T04:09:02.059Z,22.00
2023-08-08T04:10:02.071Z,14.00
2023-08-08T04:11:02.057Z,16.60
2023-08-08T04:12:02.397Z,15.40
2023-08-08T04:13:02.040Z,14.90
2023-08-08T04:14:02.062Z,12.70
2023-08-08T04:15:01.993Z,13.50
2023-08-08T04:16:01.990Z,11.70
2023-08-08T04:17:02.020Z,12.70
2023-08-08T04:18:01.990Z,13.20
2023-08-08T04:19:01.952Z,13.00
2023-08-08T04:20:01.951Z,16.50
2023-08-08T04:21:01.929Z,14.40
2023-08-08T04:22:02.231Z,13.90
2023-08-08T04:23:01.915Z,10.70
2023-08-08T04:24:01.904Z,12.00
2023-08-08T04:25:01.902Z,11.70
2023-08-08T04:26:01.903Z,14.20
2023-08-08T04:27:01.899Z,15.90
2023-08-08T04:28:01.870Z,12.40
2023-08-08T04:29:01.878Z,14.40
2023-08-08T04:30:01.976Z,11.70
2023-08-08T04:31:01.888Z,11.70
2023-08-08T04:32:02.118Z,14.90
2023-08-08T04:33:01.878Z,13.30
2023-08-08T04:34:02.438Z,14.00
2023-08-08T04:35:01.815Z,13.80
2023-08-08T04:36:01.803Z,12.40
2023-08-08T04:37:01.771Z,11.60
2023-08-08T04:38:01.759Z,11.90
2023-08-08T04:39:01.746Z,12.30
2023-08-08T04:40:01.815Z,13.20
2023-08-08T04:41:01.756Z,14.30
2023-08-08T04:42:01.935Z,14.50
2023-08-08T04:43:01.717Z,16.70
2023-08-08T04:44:01.706Z,14.00
2023-08-08T04:45:01.719Z,13.50
2023-08-08T04:46:01.786Z,15.50
2023-08-08T04:47:01.676Z,14.70
2023-08-08T04:48:01.721Z,13.20
2023-08-08T04:49:01.746Z,12.80
2023-08-08T04:50:01.662Z,13.70
2023-08-08T04:51:01.665Z,11.60
2023-08-08T04:52:01.896Z,12.10
2023-08-08T04:53:01.612Z,12.80
2023-08-08T04:54:01.615Z,11.30
2023-08-08T04:55:01.585Z,10.70
2023-08-08T04:56:01.601Z,12.00
2023-08-08T04:57:01.580Z,13.20
2023-08-08T04:58:01.583Z,15.30
2023-08-08T04:59:01.577Z,10.40
2023-08-08T05:00:01.539Z,14.70
2023-08-08T05:01:01.575Z,13.70
2023-08-08T05:02:01.783Z,14.50
2023-08-08T05:03:01.587Z,12.50
2023-08-08T05:04:01.560Z,14.50
2023-08-08T05:05:01.490Z,12.80
2023-08-08T05:06:01.485Z,11.70
2023-08-08T05:07:01.468Z,14.10
2023-08-08T05:08:01.482Z,13.00
2023-08-08T05:09:01.490Z,11.70
2023-08-08T05:10:01.465Z,12.60
2023-08-08T05:11:01.433Z,14.10
2023-08-08T05:12:01.677Z,15.30
2023-08-08T05:13:01.425Z,15.00
2023-08-08T05:14:01.397Z,14.30
2023-08-08T05:15:01.391Z,12.90
2023-08-08T05:16:01.397Z,15.00
2023-08-08T05:17:01.364Z,10.70
2023-08-08T05:18:01.384Z,14.60
2023-08-08T05:19:01.353Z,13.40
2023-08-08T05:20:01.338Z,14.00
2023-08-08T05:21:01.334Z,15.40
2023-08-08T05:22:01.689Z,13.60
2023-08-08T05:23:01.346Z,15.30
2023-08-08T05:24:01.341Z,10.20
2023-08-08T05:25:01.301Z,15.50
2023-08-08T05:26:01.277Z,11.20
2023-08-08T05:27:01.283Z,11.30
2023-08-08T05:28:01.244Z,15.70
2023-08-08T05:29:01.234Z,13.50
2023-08-08T05:30:01.231Z,14.30
2023-08-08T05:31:01.244Z,13.90
2023-08-08T05:32:01.425Z,11.90
2023-08-08T05:33:01.220Z,10.50
2023-08-08T05:34:01.199Z,11.00
2023-08-08T05:35:01.203Z,13.20
2023-08-08T05:36:01.214Z,14.30
2023-08-08T05:37:14.433Z,10.20
2023-08-08T05:38:03.165Z,10.40
2023-08-08T05:39:01.133Z,12.60
2023-08-08T05:40:01.142Z,9.70
2023-08-08T05:41:01.162Z,11.10
2023-08-08T05:42:01.116Z,11.40
2023-08-08T05:43:01.111Z,12.90
2023-08-08T05:44:01.095Z,10.90
2023-08-08T05:45:01.083Z,12.30
2023-08-08T05:46:01.147Z,13.60
2023-08-08T05:47:01.072Z,10.60
2023-08-08T05:48:01.083Z,14.40
2023-08-08T05:49:01.055Z,9.00
2023-08-08T05:50:01.050Z,10.00
2023-08-08T05:51:01.046Z,12.70
2023-08-08T05:52:01.290Z,11.70
2023-08-08T05:53:00.997Z,13.80
2023-08-08T05:54:02.342Z,12.10
2023-08-08T05:55:02.001Z,14.30
2023-08-08T05:56:00.988Z,11.20
2023-08-08T05:57:00.955Z,11.80
2023-08-08T05:58:00.953Z,13.50
2023-08-08T05:59:00.963Z,12.10
2023-08-08T06:00:02.978Z,9.00
2023-08-08T06:01:01.926Z,11.30
2023-08-08T06:02:01.338Z,12.30
2023-08-08T06:03:00.961Z,9.50
2023-08-08T06:04:00.973Z,10.50
2023-08-08T06:05:00.897Z,12.60
2023-08-08T06:06:00.874Z,12.00
2023-08-08T06:07:00.869Z,11.90
2023-08-08T06:08:00.851Z,10.30
2023-08-08T06:09:00.872Z,12.40
2023-08-08T06:10:00.843Z,13.30
2023-08-08T06:11:00.833Z,10.90
2023-08-08T06:12:01.001Z,10.80
2023-08-08T06:13:00.821Z,15.00
2023-08-08T06:14:00.823Z,13.00
2023-08-08T06:15:00.780Z,11.40
2023-08-08T06:16:00.826Z,10.00
2023-08-08T06:17:00.768Z,14.40
2023-08-08T06:18:00.805Z,14.90
2023-08-08T06:19:00.771Z,10.60
2023-08-08T06:20:00.755Z,11.00
2023-08-08T06:21:00.727Z,10.20
2023-08-08T06:22:00.973Z,10.90
2023-08-08T06:23:00.720Z,14.50
2023-08-08T06:24:00.705Z,12.50
2023-08-08T06:25:00.689Z,12.80
2023-08-08T06:26:00.697Z,11.10
2023-08-08T06:27:00.672Z,11.10
2023-08-08T06:28:00.666Z,12.20
2023-08-08T06:29:00.635Z,11.50
2023-08-08T06:30:00.669Z,15.80
2023-08-08T06:31:00.612Z,12.70
2023-08-08T06:32:00.989Z,9.60
2023-08-08T06:33:00.601Z,9.00
2023-08-08T06:34:00.598Z,11.90
2023-08-08T06:35:00.583Z,10.40
2023-08-08T06:36:00.565Z,12.80
2023-08-08T06:37:00.587Z,12.10
2023-08-08T06:38:00.547Z,8.40
2023-08-08T06:39:00.531Z,11.30
2023-08-08T06:40:00.522Z,11.80
2023-08-08T06:41:00.542Z,9.10
2023-08-08T06:42:00.737Z,10.90
2023-08-08T06:43:00.495Z,9.40
2023-08-08T06:44:00.489Z,9.60
2023-08-08T06:45:00.480Z,8.90
2023-08-08T06:46:00.529Z,8.80
2023-08-08T06:47:00.451Z,9.80
2023-08-08T06:48:00.468Z,8.70
2023-08-08T06:49:00.456Z,8.40
2023-08-08T06:50:00.430Z,11.60
2023-08-08T06:51:00.428Z,8.20
2023-08-08T06:52:00.648Z,9.50
2023-08-08T06:53:00.390Z,7.50
2023-08-08T06:54:00.483Z,8.80
2023-08-08T06:55:00.394Z,9.90
2023-08-08T06:56:00.404Z,8.60
2023-08-08T06:57:01.449Z,11.80
2023-08-08T06:58:01.347Z,8.40
2023-08-08T06:59:00.344Z,8.30
2023-08-08T07:00:00.362Z,8.00
2023-08-08T07:01:00.351Z,9.20
2023-08-08T07:02:00.311Z,9.00
2023-08-08T07:03:02.069Z,10.90
2023-08-08T07:04:00.306Z,6.70
2023-08-08T07:05:00.285Z,13.30
2023-08-08T07:06:00.290Z,10.70
2023-08-08T07:07:00.249Z,9.40
2023-08-08T07:08:00.247Z,9.40
2023-08-08T07:09:00.245Z,8.50
2023-08-08T07:10:00.340Z,9.40
2023-08-08T07:11:00.213Z,8.70
2023-08-08T07:12:00.401Z,9.60
2023-08-08T07:13:00.186Z,7.80
2023-08-08T07:14:00.200Z,7.30
2023-08-08T07:15:00.179Z,9.20
2023-08-08T07:16:00.229Z,9.80
2023-08-08T07:17:00.154Z,7.50
2023-08-08T07:18:00.171Z,9.10
2023-08-08T07:19:00.169Z,11.00
2023-08-08T07:20:00.136Z,13.90
2023-08-08T07:21:00.111Z,11.10
2023-08-08T07:22:00.411Z,10.60
2023-08-08T07:23:00.107Z,8.40
2023-08-08T07:24:00.113Z,10.90
2023-08-08T07:25:00.108Z,11.00
2023-08-08T07:26:00.146Z,9.40
2023-08-08T07:27:00.065Z,8.70
2023-08-08T07:28:00.049Z,11.60
2023-08-08T07:29:00.029Z,9.80
2023-08-08T07:30:00.017Z,8.50
2023-08-08T07:31:00.027Z,8.70
2023-08-08T07:32:00.202Z,9.50
2023-08-08T07:33:00.887Z,10.30
2023-08-08T07:33:59.987Z,11.60
2023-08-08T07:34:59.959Z,11.60
2023-08-08T07:35:59.979Z,14.40
2023-08-08T07:36:59.963Z,11.00
2023-08-08T07:37:59.953Z,11.00
2023-08-08T07:38:59.929Z,11.80
2023-08-08T07:39:59.919Z,12.00
2023-08-08T07:40:59.896Z,12.10
2023-08-08T07:42:01.243Z,10.70
2023-08-08T07:42:59.885Z,11.00
2023-08-08T07:43:59.876Z,13.60
2023-08-08T07:44:59.865Z,11.20
2023-08-08T07:45:59.863Z,10.60
2023-08-08T07:46:59.898Z,10.60
2023-08-08T07:47:59.909Z,10.00
2023-08-08T07:48:59.839Z,10.30
2023-08-08T07:49:59.809Z,12.80
2023-08-08T07:50:59.815Z,13.70
2023-08-08T07:52:00.023Z,8.70
2023-08-08T07:52:59.906Z,10.70
2023-08-08T07:53:59.776Z,12.10
2023-08-08T07:54:59.760Z,11.50
2023-08-08T07:55:59.773Z,9.60
2023-08-08T07:56:59.759Z,10.30
2023-08-08T07:57:59.735Z,10.00
2023-08-08T07:58:59.722Z,11.10
2023-08-08T07:59:59.710Z,9.80
2023-08-08T08:01:00.437Z,12.10
2023-08-08T08:01:59.785Z,13.80
2023-08-08T08:02:59.782Z,11.10
2023-08-08T08:03:59.757Z,10.40
2023-08-08T08:04:59.664Z,9.60
2023-08-08T08:05:59.666Z,13.60
2023-08-08T08:07:00.653Z,10.90
2023-08-08T08:07:59.632Z,14.60
2023-08-08T08:08:59.626Z,11.10
2023-08-08T08:09:59.633Z,13.00
2023-08-08T08:10:59.615Z,14.20
2023-08-08T08:11:59.776Z,10.80
2023-08-08T08:12:59.640Z,10.50
2023-08-08T08:13:59.577Z,12.60
2023-08-08T08:14:59.575Z,10.00
2023-08-08T08:15:59.552Z,12.90
2023-08-08T08:16:59.587Z,12.60
2023-08-08T08:17:59.572Z,13.90
2023-08-08T08:18:59.552Z,13.10
2023-08-08T08:19:59.546Z,13.30
2023-08-08T08:20:59.505Z,15.00
2023-08-08T08:21:59.914Z,13.20
2023-08-08T08:22:59.508Z,13.30
2023-08-08T08:23:59.514Z,13.60
2023-08-08T08:24:59.475Z,14.10
2023-08-08T08:25:59.460Z,15.20
2023-08-08T08:26:59.455Z,14.00
2023-08-08T08:27:59.458Z,13.90
2023-08-08T08:28:59.453Z,13.60
2023-08-08T08:29:59.423Z,12.70
2023-08-08T08:30:59.463Z,11.70
2023-08-08T08:31:59.929Z,12.30
2023-08-08T08:32:59.450Z,12.90
2023-08-08T08:33:59.400Z,15.40
2023-08-08T08:34:59.377Z,14.10
2023-08-08T08:35:59.386Z,13.50
2023-08-08T08:36:59.362Z,16.00
2023-08-08T08:37:59.577Z,14.40
2023-08-08T08:39:00.355Z,15.10
2023-08-08T08:39:59.327Z,13.80
2023-08-08T08:40:59.320Z,14.50
2023-08-08T08:41:59.302Z,15.50
2023-08-08T08:42:59.328Z,14.20
2023-08-08T08:43:59.278Z,13.80
2023-08-08T08:45:31.187Z,13.90
2023-08-08T08:45:59.271Z,12.80
2023-08-08T08:46:59.313Z,12.20
2023-08-08T08:47:59.293Z,16.50
2023-08-08T08:48:59.239Z,11.50
2023-08-08T08:49:59.222Z,13.10
2023-08-08T08:50:59.217Z,15.20
2023-08-08T08:52:00.446Z,16.00
2023-08-08T08:52:59.203Z,13.30
2023-08-08T08:53:59.175Z,13.30
2023-08-08T08:54:59.167Z,16.30
2023-08-08T08:55:59.159Z,13.60
2023-08-08T08:56:59.212Z,11.20
2023-08-08T08:57:59.146Z,12.50
2023-08-08T08:58:59.141Z,15.10
2023-08-08T08:59:59.134Z,13.10
2023-08-08T09:00:59.189Z,14.10
2023-08-08T09:01:59.485Z,13.50
2023-08-08T09:02:59.257Z,13.50
2023-08-08T09:03:59.113Z,13.30
2023-08-08T09:04:59.078Z,11.40
2023-08-08T09:05:59.079Z,11.60
2023-08-08T09:06:59.060Z,13.20
2023-08-08T09:07:59.047Z,10.60
2023-08-08T09:09:07.459Z,12.10
2023-08-08T09:10:01.019Z,13.20
2023-08-08T09:10:59.031Z,16.10
2023-08-08T09:11:59.183Z,15.50
2023-08-08T09:12:58.989Z,15.30
2023-08-08T09:13:58.994Z,15.10
2023-08-08T09:14:59.007Z,12.30
2023-08-08T09:15:59.052Z,12.40
2023-08-08T09:16:59.119Z,12.50
2023-08-08T09:17:58.969Z,11.60
2023-08-08T09:18:58.943Z,10.90
2023-08-08T09:19:58.958Z,12.50
2023-08-08T09:20:58.911Z,11.50
2023-08-08T09:21:59.345Z,12.00
2023-08-08T09:22:58.888Z,14.00
2023-08-08T09:23:58.883Z,11.70
2023-08-08T09:24:58.892Z,11.10
2023-08-08T09:25:58.865Z,12.80
2023-08-08T09:26:58.875Z,14.70
2023-08-08T09:27:58.837Z,12.00
2023-08-08T09:28:58.846Z,11.80
2023-08-08T09:29:58.836Z,10.40
2023-08-08T09:30:58.834Z,13.60
2023-08-08T09:31:59.064Z,11.40
2023-08-08T09:32:58.799Z,10.90
2023-08-08T09:33:58.807Z,11.50
2023-08-08T09:34:58.774Z,12.10
2023-08-08T09:35:58.768Z,12.20
2023-08-08T09:36:58.754Z,12.00
2023-08-08T09:37:58.768Z,11.80
2023-08-08T09:38:58.752Z,13.20
2023-08-08T09:39:58.722Z,12.00
2023-08-08T09:40:58.705Z,13.90
2023-08-08T09:41:58.704Z,10.70
2023-08-08T09:42:58.722Z,12.60
2023-08-08T09:43:58.687Z,12.60
2023-08-08T09:44:58.663Z,11.60
2023-08-08T09:45:58.749Z,18.20
2023-08-08T09:46:58.657Z,11.00
2023-08-08T09:47:58.747Z,11.80
2023-08-08T09:48:58.633Z,13.80
2023-08-08T09:49:58.618Z,12.70
2023-08-08T09:50:58.609Z,11.50
2023-08-08T09:51:58.862Z,13.60
2023-08-08T09:52:58.600Z,12.40
2023-08-08T09:53:58.575Z,14.70
2023-08-08T09:54:58.569Z,10.60
2023-08-08T09:55:58.553Z,14.30
2023-08-08T09:56:58.566Z,10.50
2023-08-08T09:57:58.573Z,12.40
2023-08-08T09:58:58.540Z,13.70
2023-08-08T09:59:58.520Z,12.00
2023-08-08T10:00:58.508Z,12.00
2023-08-08T10:01:58.654Z,13.50
2023-08-08T10:02:58.595Z,12.70
2023-08-08T10:03:58.552Z,10.80
2023-08-08T10:04:59.590Z,10.70
2023-08-08T10:05:58.455Z,12.60
2023-08-08T10:06:58.467Z,10.40
2023-08-08T10:07:58.458Z,13.60
2023-08-08T10:08:58.418Z,10.10
2023-08-08T10:09:58.426Z,13.90
2023-08-08T10:10:58.445Z,10.50
2023-08-08T10:11:58.720Z,11.70
2023-08-08T10:12:58.382Z,10.70
2023-08-08T10:13:58.485Z,10.30
2023-08-08T10:14:58.377Z,12.70
2023-08-08T10:15:58.414Z,9.80
2023-08-08T10:16:58.344Z,12.50
2023-08-08T10:17:58.396Z,10.90
2023-08-08T10:18:58.355Z,11.40
2023-08-08T10:19:58.325Z,13.60
2023-08-08T10:20:58.327Z,11.50
2023-08-08T10:21:58.606Z,11.90
2023-08-08T10:23:00.477Z,11.60
2023-08-08T10:23:59.278Z,10.30
2023-08-08T10:24:58.271Z,10.00
2023-08-08T10:25:59.294Z,10.80
2023-08-08T10:26:58.253Z,11.20
2023-08-08T10:27:58.936Z,10.40
2023-08-08T10:28:59.816Z,11.20
2023-08-08T10:29:59.245Z,12.70
2023-08-08T10:30:58.212Z,11.00
2023-08-08T10:31:58.503Z,12.40
2023-08-08T10:32:58.214Z,9.80
2023-08-08T10:33:58.204Z,12.00
2023-08-08T10:34:58.861Z,12.70
2023-08-08T10:35:58.165Z,12.80
2023-08-08T10:36:58.231Z,12.70
2023-08-08T10:37:58.143Z,12.60
2023-08-08T10:38:58.155Z,10.30
2023-08-08T10:39:58.136Z,13.90
2023-08-08T10:40:59.155Z,11.20
2023-08-08T10:41:58.318Z,12.40
2023-08-08T10:42:58.082Z,10.70
2023-08-08T10:43:58.122Z,13.30
2023-08-08T10:44:58.069Z,10.30
2023-08-08T10:46:07.661Z,12.50
2023-08-08T10:47:00.611Z,13.70
2023-08-08T10:47:58.070Z,11.30
2023-08-08T10:48:58.057Z,10.20
2023-08-08T10:49:58.033Z,10.50
2023-08-08T10:50:58.006Z,10.80
2023-08-08T10:51:58.195Z,9.70
2023-08-08T10:52:58.019Z,11.40
2023-08-08T10:53:57.979Z,9.30
2023-08-08T10:54:57.984Z,11.30
2023-08-08T10:55:57.974Z,11.80
2023-08-08T10:56:57.949Z,11.40
2023-08-08T10:57:57.961Z,10.90
2023-08-08T10:58:57.931Z,11.60
2023-08-08T10:59:57.921Z,11.70
2023-08-08T11:00:57.967Z,11.90
2023-08-08T11:01:58.586Z,11.30
2023-08-08T11:02:57.933Z,9.20
2023-08-08T11:03:57.882Z,10.60
2023-08-08T11:04:58.441Z,10.60
2023-08-08T11:05:57.858Z,10.50
2023-08-08T11:06:57.860Z,10.10
2023-08-08T11:07:57.888Z,11.50
2023-08-08T11:08:57.825Z,9.20
2023-08-08T11:09:57.813Z,11.90
2023-08-08T11:10:57.813Z,9.60
2023-08-08T11:11:58.184Z,10.20
2023-08-08T11:12:57.796Z,12.50
2023-08-08T11:13:57.778Z,11.80
2023-08-08T11:14:57.764Z,11.30
2023-08-08T11:15:57.791Z,10.90
2023-08-08T11:16:57.968Z,10.20
2023-08-08T11:17:57.771Z,12.00
2023-08-08T11:18:57.730Z,11.00
2023-08-08T11:19:57.727Z,11.90
2023-08-08T11:21:12.580Z,10.80
2023-08-08T11:22:00.322Z,10.60
2023-08-08T11:22:57.694Z,9.20
2023-08-08T11:23:57.675Z,13.70
2023-08-08T11:24:58.589Z,11.10
2023-08-08T11:26:58.640Z,12.70
2023-08-08T11:27:57.665Z,13.30
2023-08-08T11:28:57.629Z,14.50
2023-08-08T11:29:57.632Z,11.60
2023-08-08T11:30:57.664Z,10.30
2023-08-08T11:31:57.605Z,13.40
2023-08-08T11:33:58.584Z,9.30
2023-08-08T11:34:57.588Z,11.20
2023-08-08T11:35:57.590Z,11.40
2023-08-08T11:36:57.553Z,11.60
2023-08-08T11:37:57.552Z,13.50
2023-08-08T11:38:57.531Z,13.40
2023-08-08T11:39:57.543Z,8.80
2023-08-08T11:40:57.594Z,10.90
2023-08-08T11:41:59.555Z,12.70
2023-08-08T11:42:57.504Z,9.50
2023-08-08T11:43:57.491Z,10.90
2023-08-08T11:44:57.646Z,9.40
2023-08-08T11:45:58.463Z,9.80
2023-08-08T11:46:57.508Z,10.30
2023-08-08T11:47:57.535Z,10.00
2023-08-08T11:48:57.453Z,15.40
2023-08-08T11:49:57.442Z,11.30
2023-08-08T11:50:57.422Z,12.80
2023-08-08T11:51:57.408Z,8.80
2023-08-08T11:52:57.409Z,13.30
2023-08-08T11:53:57.412Z,13.80
2023-08-08T11:54:57.371Z,11.30
2023-08-08T11:55:57.366Z,10.10
2023-08-08T11:56:57.351Z,10.80
2023-08-08T11:57:57.346Z,10.30
2023-08-08T11:58:57.380Z,12.30
2023-08-08T11:59:57.331Z,9.20
2023-08-08T12:00:57.372Z,8.60
2023-08-08T12:01:57.300Z,11.00
2023-08-08T12:02:57.464Z,8.40
2023-08-08T12:03:57.385Z,8.90
2023-08-08T12:04:57.272Z,8.30
2023-08-08T12:05:57.267Z,9.90
2023-08-08T12:06:57.258Z,7.30
2023-08-08T12:07:57.261Z,9.00
2023-08-08T12:08:57.245Z,6.70
2023-08-08T12:09:57.236Z,8.50
2023-08-08T12:10:57.210Z,6.10
2023-08-08T12:11:57.199Z,7.10
2023-08-08T12:12:57.205Z,10.10
2023-08-08T12:13:57.182Z,5.90
2023-08-08T12:15:08.179Z,7.00
2023-08-08T12:16:57.182Z,7.50
2023-08-08T12:17:57.191Z,6.30
2023-08-08T12:18:57.132Z,6.70
2023-08-08T12:19:57.123Z,6.90
2023-08-08T12:20:57.124Z,6.40
2023-08-08T12:21:57.124Z,10.60
2023-08-08T12:22:57.093Z,6.60
2023-08-08T12:23:57.087Z,6.00
2023-08-08T12:24:57.068Z,8.20
2023-08-08T12:25:57.071Z,7.50
2023-08-08T12:26:57.178Z,9.40
2023-08-08T12:27:57.044Z,6.80
2023-08-08T12:28:57.109Z,7.60
2023-08-08T12:29:57.020Z,8.60
2023-08-08T12:30:57.098Z,7.70
2023-08-08T12:31:57.020Z,8.00
2023-08-08T12:32:57.019Z,7.20
2023-08-08T12:33:56.988Z,8.00
2023-08-08T12:34:57.027Z,7.00
2023-08-08T12:35:56.993Z,8.60
2023-08-08T12:36:56.953Z,7.60
2023-08-08T12:37:56.961Z,8.70
2023-08-08T12:38:56.937Z,7.20
2023-08-08T12:39:56.924Z,8.90
2023-08-08T12:40:56.931Z,6.40
2023-08-08T12:41:56.911Z,7.60
2023-08-08T12:42:56.898Z,6.00
2023-08-08T12:43:56.885Z,7.90
2023-08-08T12:44:56.998Z,8.60
2023-08-08T12:45:56.885Z,7.70
2023-08-08T12:46:56.881Z,6.90
2023-08-08T12:47:56.890Z,7.70
2023-08-08T12:48:56.852Z,6.90
2023-08-08T12:49:56.850Z,7.20
2023-08-08T12:50:56.819Z,7.70
2023-08-08T12:51:56.813Z,7.40
2023-08-08T12:52:56.806Z,9.20
2023-08-08T12:53:56.787Z,7.60
2023-08-08T12:54:56.794Z,6.90
2023-08-08T12:55:56.773Z,8.70
2023-08-08T12:56:56.767Z,7.60
2023-08-08T12:57:56.749Z,9.10
2023-08-08T12:58:56.754Z,10.00
2023-08-08T12:59:56.753Z,9.20
2023-08-08T13:00:56.712Z,6.10